Time,TemperatureF,DewpointF,PressureIn,WindDirection,WindDirectionDegrees,WindSpeedMPH,WindSpeedGustMPH,Humidity,HourlyPrecipIn,Conditions,Clouds,dailyrainin,SoftwareType,DateUTC
2013-06-05 00:20:00,76.0,-99.9,-100.00,ENE,74,2.0,3.0,-999,-99.99,,,-99.99,,2013-06-05 06:20:00,
2013-06-05 01:02:00,76.0,-99.9,-100.00,ENE,74,2.0,3.0,-999,-99.99,,,-99.99,,2013-06-05 07:02:00,
2013-06-05 01:12:00,76.0,-99.9,-100.00,ENE,74,2.0,3.0,-999,-99.99,,,-99.99,,2013-06-05 07:12:00,
2013-06-05 01:32:00,76.0,-99.9,-100.00,East,81,3.0,3.0,-999,-99.99,,,-99.99,,2013-06-05 07:32:00,
2013-06-05 01:42:00,76.0,-99.9,-100.00,East,81,3.0,3.0,-999,-99.99,,,-99.99,,2013-06-05 07:42:00,
2013-06-05 01:52:00,76.0,-99.9,-100.00,East,81,3.0,3.0,-999,-99.99,,,-99.99,,2013-06-05 07:52:00,
2013-06-05 02:22:00,73.0,-99.9,-100.00,ENE,72,2.0,4.0,-999,-99.99,,,-99.99,,2013-06-05 08:22:00,
2013-06-05 02:32:00,73.0,-99.9,-100.00,ENE,64,3.0,4.0,-999,-99.99,,,-99.99,,2013-06-05 08:32:00,
2013-06-05 02:42:00,73.0,-99.9,-100.00,ENE,64,3.0,4.0,-999,-99.99,,,-99.99,,2013-06-05 08:42:00,
2013-06-05 02:52:00,73.0,-99.9,-100.00,ENE,64,3.0,4.0,-999,-99.99,,,-99.99,,2013-06-05 08:52:00,
2013-06-05 05:02:00,67.0,-99.9,-100.00,NNE,18,0.0,2.0,-999,-99.99,,,-99.99,,2013-06-05 11:02:00,
2013-06-05 05:13:00,67.0,-99.9,-100.00,NNE,18,0.0,2.0,-999,-99.99,,,-99.99,,2013-06-05 11:13:00,
2013-06-05 06:32:00,66.0,-99.9,-100.00,ENE,72,1.0,3.0,-999,-99.99,,,-99.99,,2013-06-05 12:32:00,
2013-06-05 06:44:00,66.0,-99.9,-100.00,ENE,72,1.0,3.0,-999,-99.99,,,-99.99,,2013-06-05 12:44:00,
2013-06-05 08:02:00,69.0,-99.9,-100.00,SW,223,1.0,3.0,-999,-99.99,,,-99.99,,2013-06-05 14:02:00,
2013-06-05 08:13:00,69.0,-99.9,-100.00,SW,223,1.0,3.0,-999,-99.99,,,-99.99,,2013-06-05 14:13:00,
2013-06-05 08:22:00,69.0,-99.9,-100.00,SW,223,1.0,3.0,-999,-99.99,,,-99.99,,2013-06-05 14:22:00,
2013-06-05 08:32:00,73.0,-99.9,-100.00,NW,321,0.0,6.0,-999,-99.99,,,-99.99,,2013-06-05 14:32:00,
2013-06-05 08:42:00,73.0,-99.9,-100.00,NW,321,0.0,6.0,-999,-99.99,,,-99.99,,2013-06-05 14:42:00,
2013-06-05 08:52:00,73.0,-99.9,-100.00,NW,321,0.0,6.0,-999,-99.99,,,-99.99,,2013-06-05 14:52:00,
2013-06-05 09:20:00,81.0,-99.9,-100.00,East,82,2.0,4.0,-999,-99.99,,,-99.99,,2013-06-05 15:20:00,
2013-06-05 10:04:00,81.0,-99.9,-100.00,East,82,2.0,4.0,-999,-99.99,,,-99.99,,2013-06-05 16:04:00,
2013-06-05 10:13:00,81.0,-99.9,-100.00,East,82,2.0,4.0,-999,-99.99,,,-99.99,,2013-06-05 16:13:00,
2013-06-05 12:20:00,89.0,-99.9,-100.00,NE,39,5.0,5.0,-999,-99.99,,,-99.99,,2013-06-05 18:20:00,
2013-06-05 13:03:00,89.0,-99.9,-100.00,NE,39,5.0,5.0,-999,-99.99,,,-99.99,,2013-06-05 19:03:00,
2013-06-05 13:13:00,89.0,-99.9,-100.00,NE,39,5.0,5.0,-999,-99.99,,,-99.99,,2013-06-05 19:13:00,
2013-06-05 13:50:00,89.0,-99.9,-100.00,NE,36,6.0,8.0,-999,-99.99,,,-99.99,,2013-06-05 19:50:00,
2013-06-05 14:32:00,89.0,-99.9,-100.00,NE,36,6.0,8.0,-999,-99.99,,,-99.99,,2013-06-05 20:32:00,
2013-06-05 14:42:00,89.0,-99.9,-100.00,NE,36,6.0,8.0,-999,-99.99,,,-99.99,,2013-06-05 20:42:00,
2013-06-05 15:33:00,92.0,-99.9,-100.00,NE,53,4.0,7.0,-999,-99.99,,,-99.99,,2013-06-05 21:33:00,
2013-06-05 15:43:00,92.0,-99.9,-100.00,NE,53,4.0,7.0,-999,-99.99,,,-99.99,,2013-06-05 21:43:00,
2013-06-05 15:53:00,92.0,-99.9,-100.00,NE,53,4.0,7.0,-999,-99.99,,,-99.99,,2013-06-05 21:53:00,
2013-06-05 16:00:00,91.0,-99.9,-100.00,East,85,4.0,5.0,-999,-99.99,,,-99.99,,2013-06-05 22:00:00,
2013-06-05 16:03:00,91.0,-99.9,-100.00,North,7,4.0,9.0,-999,-99.99,,,-99.99,,2013-06-05 22:03:00,
2013-06-05 16:13:00,91.0,-99.9,-100.00,North,7,4.0,9.0,-999,-99.99,,,-99.99,,2013-06-05 22:13:00,
2013-06-05 16:23:00,91.0,-99.9,-100.00,NE,38,2.0,10.0,-999,-99.99,,,-99.99,,2013-06-05 22:23:00,
2013-06-05 16:33:00,91.0,-99.9,-100.00,NE,38,2.0,10.0,-999,-99.99,,,-99.99,,2013-06-05 22:33:00,
2013-06-05 16:53:00,91.0,-99.9,-100.00,East,85,4.0,5.0,-999,-99.99,,,-99.99,,2013-06-05 22:53:00,
2013-06-05 18:10:00,92.0,-99.9,-100.00,ENE,66,5.0,7.0,-999,-99.99,,,-99.99,,2013-06-06 00:10:00,
2013-06-05 18:52:00,92.0,-99.9,-100.00,ENE,66,5.0,7.0,-999,-99.99,,,-99.99,,2013-06-06 00:52:00,
2013-06-05 19:02:00,92.0,-99.9,-100.00,ENE,66,5.0,7.0,-999,-99.99,,,-99.99,,2013-06-06 01:02:00,
2013-06-05 21:10:00,80.0,-99.9,-100.00,East,86,1.0,2.0,-999,-99.99,,,-99.99,,2013-06-06 03:10:00,
2013-06-05 21:53:00,80.0,-99.9,-100.00,East,86,1.0,2.0,-999,-99.99,,,-99.99,,2013-06-06 03:53:00,
2013-06-05 22:03:00,80.0,-99.9,-100.00,East,86,1.0,2.0,-999,-99.99,,,-99.99,,2013-06-06 04:03:00,
2013-06-05 22:23:00,76.0,-99.9,-100.00,ENE,65,1.0,2.0,-999,-99.99,,,-99.99,,2013-06-06 04:23:00,
2013-06-05 22:33:00,76.0,-99.9,-100.00,ENE,65,1.0,2.0,-999,-99.99,,,-99.99,,2013-06-06 04:33:00,